Time;durP1;ratioP1;P1;durP2;ratioP2;P2;SDS_P1;SDS_P2;PMS_P1;PMS_P2;Temp;Humidity;BMP_temperature;BMP_pressure;BME280_temperature;BME280_humidity;BME280_pressure;Samples;Min_cycle;Max_cycle;Signal;HPM_P1;HPM_P2
2020/12/11 00:00:00;;;;;;;33.80;27.77;;;2.00;99.90;;;;;;2112840;28;20043;-78
2020/12/11 00:01:01;;;;;;;35.00;26.83;;;2.00;99.90;;;;;;2112880;28;20056;-75
2020/12/11 00:02:01;;;;;;;36.78;27.52;;;2.00;99.90;;;;;;2121494;27;20030;-76
2020/12/11 00:03:02;;;;;;;33.28;27.10;;;2.00;99.90;;;;;;2122136;27;20019;-77
2020/12/11 00:04:03;;;;;;;32.28;25.35;;;2.10;99.90;;;;;;2121947;27;20168;-77
2020/12/11 00:05:04;;;;;;;31.15;25.60;;;2.10;99.90;;;;;;2112469;28;20223;-77
2020/12/11 00:06:04;;;;;;;32.95;26.80;;;2.10;99.90;;;;;;2112423;28;20050;-79
2020/12/11 00:07:05;;;;;;;34.70;28.05;;;2.10;99.90;;;;;;2122031;27;20106;-78
2020/12/11 00:08:08;;;;;;;35.10;27.05;;;2.10;99.90;;;;;;2121855;27;20020;-77
2020/12/11 00:09:09;;;;;;;34.03;26.17;;;2.10;99.90;;;;;;2113005;28;20165;-77
2020/12/11 00:10:11;;;;;;;35.70;27.10;;;2.10;99.90;;;;;;2112933;28;20085;-76
2020/12/11 00:11:12;;;;;;;32.17;25.00;;;2.10;99.90;;;;;;2121920;27;20015;-78
2020/12/11 00:12:12;;;;;;;32.75;25.30;;;2.20;99.90;;;;;;2121289;27;20033;-76
2020/12/11 00:13:13;;;;;;;33.65;26.58;;;2.20;99.90;;;;;;2122207;27;20015;-76
2020/12/11 00:14:14;;;;;;;34.42;26.27;;;2.20;99.90;;;;;;2121893;27;20470;-76
2020/12/11 00:15:14;;;;;;;33.45;26.65;;;2.20;99.90;;;;;;2122162;27;20347;-76
2020/12/11 00:16:15;;;;;;;34.03;25.27;;;2.20;99.90;;;;;;2122005;27;20034;-79
2020/12/11 00:17:15;;;;;;;34.22;26.35;;;2.20;99.90;;;;;;2112944;28;20103;-79
2020/12/11 00:18:16;;;;;;;34.13;25.77;;;2.20;99.90;;;;;;2112844;28;20031;-77
2020/12/11 00:19:17;;;;;;;30.70;24.75;;;2.20;99.90;;;;;;2122002;27;20098;-75
2020/12/11 00:20:17;;;;;;;35.90;27.25;;;2.20;99.90;;;;;;2122045;27;20375;-77
2020/12/11 00:21:18;;;;;;;32.47;26.83;;;2.20;99.90;;;;;;2112489;28;20051;-77
2020/12/11 00:22:18;;;;;;;32.08;25.13;;;2.20;99.90;;;;;;2112507;28;20102;-76
2020/12/11 00:23:19;;;;;;;33.65;26.00;;;2.20;99.90;;;;;;2122117;27;20030;-75
2020/12/11 00:24:19;;;;;;;35.05;25.90;;;2.20;99.90;;;;;;2122198;27;20448;-77
2020/12/11 00:25:20;;;;;;;35.63;27.55;;;2.20;99.90;;;;;;2122002;27;20027;-77
2020/12/11 00:26:20;;;;;;;35.42;26.92;;;2.20;99.90;;;;;;2122174;27;20038;-78
2020/12/11 00:27:21;;;;;;;32.58;26.20;;;2.30;99.90;;;;;;2112810;28;20042;-76
2020/12/11 00:28:21;;;;;;;34.70;27.27;;;2.20;99.90;;;;;;2104138;28;20024;-76
2020/12/11 00:29:22;;;;;;;33.28;25.88;;;2.30;99.90;;;;;;2112798;28;20498;-75
2020/12/11 00:30:22;;;;;;;37.50;28.83;;;2.30;99.90;;;;;;2104311;28;20043;-75
2020/12/11 00:31:24;;;;;;;36.13;27.75;;;2.30;99.90;;;;;;2112194;28;20027;-77
2020/12/11 00:32:24;;;;;;;34.25;26.17;;;2.30;99.90;;;;;;2122218;27;20019;-78
2020/12/11 00:33:26;;;;;;;31.88;25.48;;;2.30;99.90;;;;;;2112725;28;20070;-76
2020/12/11 00:34:26;;;;;;;32.88;25.67;;;2.30;99.90;;;;;;2112867;28;20050;-75
2020/12/11 00:35:27;;;;;;;35.53;26.23;;;2.30;99.90;;;;;;2112787;28;20030;-80
2020/12/11 00:36:27;;;;;;;35.83;27.65;;;2.30;99.90;;;;;;2112456;28;20471;-78
2020/12/11 00:37:28;;;;;;;33.70;26.40;;;2.30;99.90;;;;;;2121911;27;20494;-77
2020/12/11 00:38:29;;;;;;;32.22;25.90;;;2.40;99.90;;;;;;2112865;28;20055;-78
2020/12/11 00:39:30;;;;;;;35.40;27.92;;;2.40;99.90;;;;;;2112739;28;20041;-75
2020/12/11 00:40:31;;;;;;;33.38;26.23;;;2.40;99.90;;;;;;2121935;27;20092;-77
2020/12/11 00:41:31;;;;;;;31.08;24.67;;;2.40;99.90;;;;;;2121466;27;20269;-77
2020/12/11 00:42:32;;;;;;;34.20;27.27;;;2.40;99.90;;;;;;2121949;27;20050;-78
2020/12/11 00:43:33;;;;;;;36.80;26.92;;;2.40;99.90;;;;;;2121674;27;20056;-76
2020/12/11 00:44:34;;;;;;;35.05;26.38;;;2.40;99.90;;;;;;2121789;27;20452;-76
2020/12/11 00:45:34;;;;;;;37.78;27.48;;;2.40;99.90;;;;;;2121825;27;20106;-78
2020/12/11 00:46:35;;;;;;;34.22;27.08;;;2.40;99.90;;;;;;2121900;27;20076;-78
2020/12/11 00:47:36;;;;;;;33.55;26.50;;;2.50;99.90;;;;;;2112339;28;20019;-78
2020/12/11 00:48:37;;;;;;;33.97;26.15;;;2.40;99.90;;;;;;2104490;28;20031;-78
2020/12/11 00:49:37;;;;;;;34.22;26.92;;;2.50;99.90;;;;;;2112625;28;20023;-77
2020/12/11 00:50:38;;;;;;;36.70;27.77;;;2.50;99.90;;;;;;2112622;28;20055;-78
2020/12/11 00:51:39;;;;;;;33.55;26.00;;;2.50;99.90;;;;;;2112233;28;20074;-77
2020/12/11 00:52:40;;;;;;;36.33;25.77;;;2.50;99.90;;;;;;2121882;27;20019;-76
2020/12/11 00:53:40;;;;;;;35.83;25.95;;;2.50;99.90;;;;;;2112309;28;20028;-78
2020/12/11 00:54:41;;;;;;;31.92;25.60;;;2.50;99.90;;;;;;2112625;28;20095;-77
2020/12/11 00:55:42;;;;;;;33.45;26.65;;;2.50;99.90;;;;;;2121898;27;20371;-77
2020/12/11 00:56:42;;;;;;;33.22;25.33;;;2.50;99.90;;;;;;2121384;27;20020;-77
2020/12/11 00:57:43;;;;;;;33.30;26.27;;;2.50;99.90;;;;;;2121411;27;20540;-78
2020/12/11 00:58:45;;;;;;;32.28;25.73;;;2.50;99.90;;;;;;2121662;27;20030;-76
2020/12/11 00:59:45;;;;;;;32.55;25.90;;;2.60;99.90;;;;;;2121509;27;20039;-78
2020/12/11 01:00:46;;;;;;;32.08;25.63;;;2.60;99.90;;;;;;2121710;27;20658;-74
2020/12/11 01:01:46;;;;;;;32.13;25.30;;;2.60;99.90;;;;;;2121265;27;20034;-76
2020/12/11 01:02:47;;;;;;;33.20;26.23;;;2.60;99.90;;;;;;2112365;28;20076;-77
2020/12/11 01:03:48;;;;;;;33.42;24.25;;;2.60;99.90;;;;;;2112515;28;20024;-78
2020/12/11 01:04:48;;;;;;;32.05;23.80;;;2.60;99.90;;;;;;2121545;27;20184;-78
2020/12/11 01:05:49;;;;;;;30.63;23.85;;;2.60;99.90;;;;;;2112488;28;20071;-78
2020/12/11 01:06:49;;;;;;;34.10;25.95;;;2.60;99.90;;;;;;2112331;28;20111;-77
2020/12/11 01:07:50;;;;;;;34.30;25.85;;;2.60;99.90;;;;;;2112350;28;20023;-79
2020/12/11 01:08:50;;;;;;;33.35;25.67;;;2.60;99.90;;;;;;2112720;28;20446;-77
2020/12/11 01:09:51;;;;;;;32.05;25.15;;;2.60;99.90;;;;;;2112294;28;20118;-78
2020/12/11 01:10:51;;;;;;;32.65;25.17;;;2.70;99.90;;;;;;2112345;28;20031;-78
2020/12/11 01:11:52;;;;;;;30.35;24.92;;;2.70;99.90;;;;;;2121220;27;20042;-78
2020/12/11 01:12:52;;;;;;;33.90;26.30;;;2.70;99.90;;;;;;2112386;28;20015;-79
2020/12/11 01:13:53;;;;;;;32.30;24.15;;;2.70;99.90;;;;;;2112435;28;20027;-76
2020/12/11 01:14:53;;;;;;;33.67;26.02;;;2.70;99.90;;;;;;2112330;28;20102;-75
2020/12/11 01:15:54;;;;;;;32.33;24.98;;;2.70;99.90;;;;;;2112230;28;20016;-76
2020/12/11 01:16:54;;;;;;;34.85;26.42;;;2.80;99.90;;;;;;2103972;28;20086;-77
2020/12/11 01:17:55;;;;;;;31.73;24.52;;;2.80;99.90;;;;;;2104234;28;20112;-78
2020/12/11 01:18:56;;;;;;;35.42;26.13;;;2.80;99.90;;;;;;2112147;28;20062;-76
2020/12/11 01:19:57;;;;;;;32.03;25.38;;;2.80;99.90;;;;;;2121492;27;20015;-77
2020/12/11 01:20:58;;;;;;;33.25;25.63;;;2.80;99.90;;;;;;2121588;27;20062;-78
2020/12/11 01:21:58;;;;;;;32.85;24.48;;;2.80;99.90;;;;;;2121010;27;20023;-78
2020/12/11 01:22:59;;;;;;;32.92;26.20;;;2.80;99.90;;;;;;2121445;27;20023;-76
2020/12/11 01:23:59;;;;;;;32.42;26.65;;;2.80;99.90;;;;;;2121508;27;20035;-78
2020/12/11 01:25:00;;;;;;;32.15;25.58;;;2.80;99.90;;;;;;2121654;27;20057;-78
2020/12/11 01:26:00;;;;;;;32.67;24.95;;;2.80;99.90;;;;;;2121718;27;20027;-78
2020/12/11 01:27:01;;;;;;;29.63;22.88;;;2.80;99.90;;;;;;2121414;27;20504;-80
2020/12/11 01:28:01;;;;;;;32.05;25.08;;;2.80;99.90;;;;;;2121368;27;20552;-75
2020/12/11 01:29:02;;;;;;;33.88;25.98;;;2.80;99.90;;;;;;2121487;27;20027;-77
2020/12/11 01:30:03;;;;;;;33.60;26.30;;;2.90;99.90;;;;;;2112094;28;20544;-76
2020/12/11 01:31:04;;;;;;;32.00;24.80;;;2.90;99.90;;;;;;2112726;28;20059;-77
2020/12/11 01:32:04;;;;;;;31.02;24.48;;;2.90;99.90;;;;;;2121181;27;20028;-76
2020/12/11 01:33:05;;;;;;;32.85;25.67;;;2.90;99.90;;;;;;2121149;27;20019;-76
2020/12/11 01:34:05;;;;;;;32.97;24.70;;;2.90;99.90;;;;;;2121404;27;20019;-80
2020/12/11 01:35:06;;;;;;;31.33;24.95;;;2.90;99.90;;;;;;2112300;28;20024;-80
2020/12/11 01:36:06;;;;;;;31.02;24.63;;;2.90;99.90;;;;;;2112038;28;20055;-79
2020/12/11 01:37:07;;;;;;;32.63;25.33;;;2.90;99.90;;;;;;2121542;27;20103;-77
2020/12/11 01:38:07;;;;;;;31.90;25.45;;;2.90;99.90;;;;;;2111892;28;20020;-75
2020/12/11 01:39:08;;;;;;;33.72;27.52;;;2.90;99.90;;;;;;2103798;28;20013;-79
2020/12/11 01:40:09;;;;;;;33.50;25.67;;;2.90;99.90;;;;;;2112064;28;20034;-78
2020/12/11 01:41:09;;;;;;;34.00;25.27;;;2.90;99.90;;;;;;2121576;27;20015;-78
2020/12/11 01:42:13;;;;;;;31.30;23.42;;;2.90;99.90;;;;;;2111789;28;20023;-78
2020/12/11 01:43:14;;;;;;;33.47;25.63;;;2.90;99.90;;;;;;2112640;28;20396;-78
2020/12/11 01:44:14;;;;;;;30.52;24.98;;;2.90;99.90;;;;;;2121217;27;20475;-76
2020/12/11 01:45:15;;;;;;;31.88;25.42;;;2.90;99.90;;;;;;2121528;27;20106;-76
2020/12/11 01:46:17;;;;;;;31.02;24.85;;;2.90;99.90;;;;;;2111849;28;20142;-77
2020/12/11 01:47:18;;;;;;;30.83;24.63;;;3.00;99.90;;;;;;2112520;28;20344;-77
2020/12/11 01:48:19;;;;;;;32.95;25.80;;;3.00;99.90;;;;;;2112104;28;20031;-76
2020/12/11 01:49:20;;;;;;;32.67;25.83;;;3.00;99.90;;;;;;2103826;28;20025;-75
2020/12/11 01:50:21;;;;;;;32.30;25.80;;;3.00;99.90;;;;;;2103522;28;20030;-76
2020/12/11 01:51:21;;;;;;;31.83;25.63;;;3.00;99.90;;;;;;2103725;28;20464;-77
2020/12/11 01:52:22;;;;;;;30.13;24.33;;;3.00;99.90;;;;;;2112092;28;20067;-78
2020/12/11 01:53:23;;;;;;;30.63;24.40;;;3.00;99.90;;;;;;2112243;28;20514;-78
2020/12/11 01:54:23;;;;;;;32.20;25.05;;;3.00;99.90;;;;;;2112164;28;20099;-76
2020/12/11 01:55:24;;;;;;;31.63;24.98;;;3.00;99.90;;;;;;2121264;28;20011;-79
2020/12/11 01:56:26;;;;;;;31.95;24.52;;;3.00;99.90;;;;;;2121250;28;20023;-76
2020/12/11 01:57:34;;;;;;;32.42;25.40;;;3.00;99.90;;;;;;2121260;28;20027;-76
2020/12/11 01:58:39;;;;;;;31.02;24.77;;;3.00;99.90;;;;;;2121168;28;20019;-75
2020/12/11 01:59:41;;;;;;;33.28;24.88;;;3.10;99.90;;;;;;2121415;28;20026;-77
2020/12/11 02:00:42;;;;;;;32.03;26.08;;;3.10;99.90;;;;;;2121143;28;20016;-77
2020/12/11 02:01:46;;;;;;;33.78;26.30;;;3.10;99.90;;;;;;2111567;28;20023;-78
2020/12/11 02:02:48;;;;;;;34.22;25.98;;;3.10;99.90;;;;;;2111968;28;20061;-77
2020/12/11 02:03:49;;;;;;;32.60;26.00;;;3.10;99.90;;;;;;2112191;28;20111;-80
2020/12/11 02:04:50;;;;;;;34.63;25.00;;;3.10;99.90;;;;;;2121439;28;20019;-78
2020/12/11 02:05:50;;;;;;;32.92;25.02;;;3.10;99.90;;;;;;2121133;28;20023;-77
2020/12/11 02:06:51;;;;;;;33.22;26.45;;;3.10;99.90;;;;;;2111875;28;20063;-78
2020/12/11 02:07:52;;;;;;;32.85;25.38;;;3.10;99.90;;;;;;2112159;28;20019;-78
2020/12/11 02:08:56;;;;;;;34.20;24.67;;;3.20;99.90;;;;;;2122813;27;20104;-77
2020/12/11 02:09:57;;;;;;;31.20;25.05;;;3.20;99.90;;;;;;2113753;28;20024;-79
2020/12/11 02:10:57;;;;;;;31.20;25.45;;;3.20;99.90;;;;;;2113992;28;20379;-76
2020/12/11 02:11:58;;;;;;;33.85;26.65;;;3.20;99.90;;;;;;2122418;27;20031;-78
2020/12/11 02:13:06;;;;;;;33.10;26.17;;;3.20;99.90;;;;;;2122718;27;20019;-79
2020/12/11 02:14:09;;;;;;;34.10;26.35;;;3.20;99.90;;;;;;2113870;28;20380;-79
2020/12/11 02:15:09;;;;;;;31.48;26.20;;;3.20;99.90;;;;;;2114059;28;20016;-77
2020/12/11 02:16:10;;;;;;;32.45;26.02;;;3.20;99.90;;;;;;2105473;28;20020;-79
2020/12/11 02:17:10;;;;;;;32.35;26.08;;;3.20;99.90;;;;;;2105166;28;20012;-79
2020/12/11 02:18:11;;;;;;;32.67;26.40;;;3.20;99.90;;;;;;2113744;28;20278;-78
2020/12/11 02:19:12;;;;;;;32.15;26.13;;;3.20;99.90;;;;;;2122250;27;20030;-76
2020/12/11 02:20:13;;;;;;;32.47;26.27;;;3.20;99.90;;;;;;2122991;27;20126;-77
2020/12/11 02:21:14;;;;;;;31.45;25.95;;;3.30;99.90;;;;;;2122896;27;20011;-80
2020/12/11 02:22:15;;;;;;;36.13;26.75;;;3.30;99.90;;;;;;2113404;28;20064;-79
2020/12/11 02:23:15;;;;;;;31.65;25.33;;;3.30;99.90;;;;;;2105503;28;20373;-78
2020/12/11 02:24:17;;;;;;;33.67;27.20;;;3.30;99.90;;;;;;2113707;28;20088;-78
2020/12/11 02:25:17;;;;;;;33.80;27.60;;;3.30;99.90;;;;;;2123264;27;20671;-78
2020/12/11 02:26:18;;;;;;;33.45;26.30;;;3.30;99.90;;;;;;2113774;28;20125;-76
2020/12/11 02:27:18;;;;;;;37.47;28.02;;;3.30;99.90;;;;;;2114019;28;20107;-79
2020/12/11 02:28:19;;;;;;;32.53;26.70;;;3.30;99.90;;;;;;2122975;27;20475;-79
2020/12/11 02:29:20;;;;;;;33.95;25.80;;;3.30;99.90;;;;;;2122772;27;20023;-79
2020/12/11 02:30:21;;;;;;;34.83;27.08;;;3.30;99.90;;;;;;2113845;28;20028;-78
2020/12/11 02:31:22;;;;;;;32.05;26.55;;;3.30;99.90;;;;;;2113662;28;20062;-77
2020/12/11 02:32:22;;;;;;;33.92;27.00;;;3.40;99.90;;;;;;2122731;27;20031;-79
2020/12/11 02:33:23;;;;;;;34.63;27.83;;;3.40;99.90;;;;;;2122796;27;20020;-77
2020/12/11 02:34:23;;;;;;;33.38;26.48;;;3.40;99.90;;;;;;2122406;27;20019;-76
2020/12/11 02:35:24;;;;;;;34.80;28.52;;;3.40;99.90;;;;;;2123232;27;20019;-76
2020/12/11 02:36:24;;;;;;;33.08;26.80;;;3.40;99.90;;;;;;2122730;27;20019;-80
2020/12/11 02:37:25;;;;;;;36.13;27.83;;;3.40;99.90;;;;;;2122795;27;20023;-78
2020/12/11 02:38:25;;;;;;;34.78;27.65;;;3.40;99.90;;;;;;2113782;28;20114;-79
2020/12/11 02:39:27;;;;;;;36.88;28.58;;;3.40;99.90;;;;;;2113401;28;20031;-78
2020/12/11 02:40:27;;;;;;;33.58;28.02;;;3.40;99.90;;;;;;2122134;28;20038;-77
2020/12/11 02:41:28;;;;;;;33.17;26.30;;;3.40;99.90;;;;;;2121900;28;20055;-77
2020/12/11 02:42:28;;;;;;;38.58;29.08;;;3.40;99.90;;;;;;2113049;28;20035;-76
2020/12/11 02:43:37;;;;;;;35.75;28.98;;;3.40;99.90;;;;;;2113274;28;20019;-79
2020/12/11 02:44:37;;;;;;;34.08;27.13;;;3.40;99.90;;;;;;2122134;28;20023;-77
2020/12/11 02:45:38;;;;;;;35.17;28.75;;;3.40;99.90;;;;;;2122398;28;20034;-77
2020/12/11 02:46:38;;;;;;;37.55;29.02;;;3.40;99.90;;;;;;2122189;28;20064;-79
2020/12/11 02:47:39;;;;;;;33.83;28.10;;;3.40;99.90;;;;;;2122052;28;20030;-79
2020/12/11 02:48:39;;;;;;;33.55;27.38;;;3.40;99.90;;;;;;2122196;28;20174;-76
2020/12/11 02:49:40;;;;;;;35.33;26.73;;;3.40;99.90;;;;;;2122491;28;20189;-80
2020/12/11 02:50:40;;;;;;;38.15;30.00;;;3.40;99.90;;;;;;2122166;28;20102;-79
2020/12/11 02:51:41;;;;;;;33.17;27.67;;;3.40;99.90;;;;;;2121719;28;20067;-76
2020/12/11 02:52:41;;;;;;;35.78;27.27;;;3.40;99.90;;;;;;2121940;28;20026;-78
2020/12/11 02:53:49;;;;;;;37.38;29.05;;;3.40;99.90;;;;;;2112744;28;20035;-78
2020/12/11 02:54:50;;;;;;;35.55;27.92;;;3.50;99.90;;;;;;2110460;28;20203;-77
2020/12/11 02:55:51;;;;;;;37.92;28.33;;;3.40;99.90;;;;;;2112921;28;20446;-78
2020/12/11 02:56:51;;;;;;;34.35;27.63;;;3.50;99.90;;;;;;2104175;28;20047;-79
2020/12/11 02:57:52;;;;;;;33.95;28.08;;;3.40;99.90;;;;;;2113120;28;20073;-79
2020/12/11 02:58:52;;;;;;;36.45;28.25;;;3.50;99.90;;;;;;2112908;28;20020;-76
2020/12/11 02:59:53;;;;;;;36.30;27.85;;;3.50;99.90;;;;;;2113184;28;20024;-77
2020/12/11 03:00:53;;;;;;;34.33;28.15;;;3.50;99.90;;;;;;2122507;28;20145;-78
2020/12/11 03:01:54;;;;;;;34.67;28.13;;;3.50;99.90;;;;;;2122543;28;20059;-79
2020/12/11 03:02:55;;;;;;;36.90;28.63;;;3.50;99.90;;;;;;2122668;28;20045;-76
2020/12/11 03:03:56;;;;;;;33.67;27.27;;;3.50;99.90;;;;;;2122552;28;20075;-77
2020/12/11 03:04:56;;;;;;;37.28;28.38;;;3.40;99.90;;;;;;2122752;28;20432;-79
2020/12/11 03:05:57;;;;;;;33.63;26.27;;;3.40;99.90;;;;;;2123092;28;20486;-77
2020/12/11 03:06:57;;;;;;;36.90;27.08;;;3.40;99.90;;;;;;2122663;28;20023;-79
2020/12/11 03:07:58;;;;;;;32.58;27.20;;;3.40;99.90;;;;;;2113805;28;20047;-79
2020/12/11 03:08:59;;;;;;;38.78;28.27;;;3.40;99.90;;;;;;2113630;28;20020;-79
2020/12/11 03:10:00;;;;;;;34.58;26.58;;;3.40;99.90;;;;;;2122827;28;20025;-76
2020/12/11 03:11:00;;;;;;;36.20;28.33;;;3.40;99.90;;;;;;2122802;28;20030;-78
2020/12/11 03:12:01;;;;;;;37.13;28.75;;;3.40;99.90;;;;;;2122398;28;20100;-76
2020/12/11 03:13:02;;;;;;;32.42;25.90;;;3.40;99.90;;;;;;2122524;28;20019;-78
2020/12/11 03:14:02;;;;;;;32.63;27.08;;;3.40;99.90;;;;;;2122920;28;20023;-79
2020/12/11 03:15:03;;;;;;;33.58;26.20;;;3.40;99.90;;;;;;2122775;28;20015;-76
2020/12/11 03:16:04;;;;;;;33.05;26.80;;;3.40;99.90;;;;;;2122848;28;20046;-76
2020/12/11 03:17:05;;;;;;;35.35;27.95;;;3.40;99.90;;;;;;2122565;28;20028;-76
2020/12/11 03:18:05;;;;;;;33.22;26.75;;;3.40;99.90;;;;;;2123018;28;20043;-76
2020/12/11 03:19:06;;;;;;;33.72;26.90;;;3.50;99.90;;;;;;2113614;28;20062;-77
2020/12/11 03:20:06;;;;;;;32.75;26.85;;;3.50;99.90;;;;;;2113107;28;20076;-76
2020/12/11 03:21:07;;;;;;;37.17;27.70;;;3.40;99.90;;;;;;2122742;28;20019;-79
2020/12/11 03:22:07;;;;;;;33.35;27.20;;;3.40;99.90;;;;;;2122617;28;20023;-77
2020/12/11 03:23:08;;;;;;;35.97;28.00;;;3.50;99.90;;;;;;2113468;28;20119;-78
2020/12/11 03:24:09;;;;;;;37.05;28.67;;;3.50;99.90;;;;;;2114088;28;20024;-77
2020/12/11 03:25:09;;;;;;;33.25;26.77;;;3.50;99.90;;;;;;2122562;28;20269;-76
2020/12/11 03:26:10;;;;;;;33.58;26.90;;;3.50;99.90;;;;;;2113562;28;20020;-77
2020/12/11 03:27:11;;;;;;;33.15;26.30;;;3.50;99.90;;;;;;2113644;28;20020;-78
2020/12/11 03:28:11;;;;;;;34.85;28.63;;;3.50;99.90;;;;;;2122615;28;20023;-78
2020/12/11 03:29:12;;;;;;;32.47;26.05;;;3.50;99.90;;;;;;2113342;28;20043;-77
2020/12/11 03:30:12;;;;;;;36.10;29.08;;;3.50;99.90;;;;;;2113830;28;20030;-78
2020/12/11 03:31:15;;;;;;;33.45;27.02;;;3.50;99.90;;;;;;2113590;28;20491;-79
2020/12/11 03:32:16;;;;;;;33.10;26.38;;;3.50;99.90;;;;;;2113536;28;20099;-76
2020/12/11 03:33:17;;;;;;;33.55;25.85;;;3.50;99.90;;;;;;2122780;28;20027;-77
2020/12/11 03:34:17;;;;;;;34.58;26.67;;;3.50;99.90;;;;;;2122760;28;20019;-78
2020/12/11 03:35:18;;;;;;;33.88;26.77;;;3.50;99.90;;;;;;2113591;28;20480;-78
2020/12/11 03:36:19;;;;;;;31.60;26.27;;;3.50;99.90;;;;;;2113263;28;20031;-77
2020/12/11 03:37:20;;;;;;;31.02;25.30;;;3.40;99.90;;;;;;2122629;28;20047;-76
2020/12/11 03:38:21;;;;;;;33.08;25.58;;;3.40;99.90;;;;;;2122717;28;20034;-76
2020/12/11 03:39:22;;;;;;;31.33;25.17;;;3.40;99.90;;;;;;2100421;28;582064;-77
2020/12/11 03:40:22;;;;;;;31.08;25.00;;;3.40;99.90;;;;;;2105614;28;20054;-77
2020/12/11 03:41:23;;;;;;;31.48;25.52;;;3.40;99.90;;;;;;2106289;28;20110;-78
2020/12/11 03:42:23;;;;;;;32.70;26.23;;;3.40;99.90;;;;;;2123096;27;20023;-77
2020/12/11 03:43:24;;;;;;;30.13;24.95;;;3.40;99.90;;;;;;2114177;28;20031;-78
2020/12/11 03:44:24;;;;;;;29.92;24.30;;;3.40;99.90;;;;;;2113986;28;20034;-77
2020/12/11 03:45:25;;;;;;;30.25;25.77;;;3.30;99.90;;;;;;2123029;27;20521;-77
2020/12/11 03:46:26;;;;;;;28.83;24.98;;;3.30;99.90;;;;;;2113692;28;20110;-76
2020/12/11 03:47:30;;;;;;;31.60;25.63;;;3.30;99.90;;;;;;2113746;28;20054;-78
2020/12/11 03:48:30;;;;;;;31.08;25.05;;;3.30;99.90;;;;;;2113606;28;20204;-78
2020/12/11 03:49:31;;;;;;;31.55;25.48;;;3.30;99.90;;;;;;2105424;28;20476;-76
2020/12/11 03:50:31;;;;;;;28.20;23.90;;;3.30;99.90;;;;;;2105159;28;20028;-79
2020/12/11 03:51:32;;;;;;;29.30;24.40;;;3.30;99.90;;;;;;2113431;28;20034;-76
2020/12/11 03:52:32;;;;;;;30.92;24.38;;;3.30;99.90;;;;;;2122843;27;20034;-75
2020/12/11 03:53:33;;;;;;;29.02;24.77;;;3.30;99.90;;;;;;2123305;27;20047;-78
2020/12/11 03:54:33;;;;;;;27.38;23.38;;;3.30;99.90;;;;;;2122881;27;20019;-77
2020/12/11 03:55:34;;;;;;;30.30;24.73;;;3.20;99.90;;;;;;2122928;27;20439;-78
2020/12/11 03:56:34;;;;;;;31.38;26.02;;;3.30;99.90;;;;;;2113829;28;20486;-78
2020/12/11 03:57:35;;;;;;;29.60;24.05;;;3.30;99.90;;;;;;2113994;28;20473;-79
2020/12/11 03:58:38;;;;;;;31.88;25.50;;;3.20;99.90;;;;;;2122874;27;20383;-76
2020/12/11 03:59:38;;;;;;;27.45;23.77;;;3.30;99.90;;;;;;2123032;27;20016;-77
2020/12/11 04:00:39;;;;;;;29.95;23.80;;;3.20;99.90;;;;;;2122980;27;20023;-78
2020/12/11 04:01:39;;;;;;;27.33;23.30;;;3.20;99.90;;;;;;2122128;27;20151;-79
2020/12/11 04:02:40;;;;;;;28.40;23.20;;;3.20;99.90;;;;;;2122179;27;20019;-77
2020/12/11 04:03:41;;;;;;;29.58;24.05;;;3.20;99.90;;;;;;2113525;28;20026;-77
2020/12/11 04:04:43;;;;;;;29.02;22.85;;;3.20;99.90;;;;;;2113338;28;20424;-80
2020/12/11 04:05:43;;;;;;;27.98;23.10;;;3.20;99.90;;;;;;2122515;27;20390;-78
2020/12/11 04:06:44;;;;;;;29.27;22.73;;;3.20;99.90;;;;;;2122417;27;20023;-76
2020/12/11 04:07:44;;;;;;;26.38;21.95;;;3.20;99.90;;;;;;2113269;28;20032;-79
2020/12/11 04:08:45;;;;;;;25.73;22.63;;;3.20;99.90;;;;;;2104784;28;20027;-78
2020/12/11 04:09:46;;;;;;;28.13;23.35;;;3.20;99.90;;;;;;2113317;28;20042;-76
2020/12/11 04:10:46;;;;;;;26.40;22.00;;;3.20;99.90;;;;;;2121798;27;20016;-78
2020/12/11 04:11:47;;;;;;;29.25;23.20;;;3.20;99.90;;;;;;2121725;27;20107;-76
2020/12/11 04:12:47;;;;;;;30.13;24.15;;;3.20;99.90;;;;;;2122274;27;20117;-77
2020/12/11 04:13:48;;;;;;;28.25;23.13;;;3.20;99.90;;;;;;2122105;27;20015;-79
2020/12/11 04:14:49;;;;;;;27.88;22.63;;;3.20;99.90;;;;;;2113054;28;20039;-77
2020/12/11 04:15:50;;;;;;;28.60;22.90;;;3.20;99.90;;;;;;2112933;28;20030;-79
2020/12/11 04:16:51;;;;;;;25.98;22.90;;;3.20;99.90;;;;;;2122232;27;20043;-78
2020/12/11 04:17:52;;;;;;;25.85;22.70;;;3.20;99.90;;;;;;2122000;27;20019;-76
2020/12/11 04:18:52;;;;;;;25.52;21.65;;;3.20;99.90;;;;;;2122332;27;20051;-77
2020/12/11 04:19:53;;;;;;;28.77;22.35;;;3.20;99.90;;;;;;2122220;27;20023;-79
2020/12/11 04:20:56;;;;;;;27.55;22.80;;;3.20;99.90;;;;;;2122253;27;20023;-77
2020/12/11 04:21:57;;;;;;;27.40;22.98;;;3.20;99.90;;;;;;2121703;27;20211;-76
2020/12/11 04:22:58;;;;;;;28.27;22.42;;;3.20;99.90;;;;;;2122108;27;20019;-78
2020/12/11 04:23:58;;;;;;;29.35;22.45;;;3.20;99.90;;;;;;2121815;27;20402;-75
2020/12/11 04:24:59;;;;;;;27.17;22.30;;;3.20;99.90;;;;;;2112880;28;20102;-77
2020/12/11 04:25:59;;;;;;;25.88;21.65;;;3.20;99.90;;;;;;2113202;28;20107;-80
2020/12/11 04:27:00;;;;;;;26.45;21.90;;;3.20;99.90;;;;;;2121794;27;20052;-78
2020/12/11 04:28:00;;;;;;;24.20;20.83;;;3.20;99.90;;;;;;2122188;27;20019;-76
2020/12/11 04:29:01;;;;;;;25.27;21.40;;;3.20;99.90;;;;;;2113070;28;20016;-78
2020/12/11 04:30:01;;;;;;;25.80;22.08;;;3.20;99.90;;;;;;2112916;28;20023;-78
2020/12/11 04:31:02;;;;;;;24.70;21.75;;;3.20;99.90;;;;;;2112946;28;20027;-77
2020/12/11 04:32:03;;;;;;;24.83;21.42;;;3.20;99.90;;;;;;2111672;28;20434;-77
2020/12/11 04:33:03;;;;;;;25.08;21.60;;;3.20;99.90;;;;;;2112622;28;20098;-78
2020/12/11 04:34:05;;;;;;;27.65;21.50;;;3.20;99.90;;;;;;2112947;28;20070;-75
2020/12/11 04:35:05;;;;;;;25.30;21.83;;;3.20;99.90;;;;;;2122103;27;20038;-78
2020/12/11 04:36:06;;;;;;;26.27;21.35;;;3.20;99.90;;;;;;2112668;28;20027;-76
2020/12/11 04:37:06;;;;;;;22.42;19.95;;;3.20;99.90;;;;;;2104345;28;20043;-79
2020/12/11 04:38:07;;;;;;;24.60;20.20;;;3.20;99.90;;;;;;2112770;28;20023;-77
2020/12/11 04:39:07;;;;;;;22.40;18.95;;;3.20;99.90;;;;;;2112664;28;20085;-74
2020/12/11 04:40:08;;;;;;;23.90;20.75;;;3.20;99.90;;;;;;2112784;28;20496;-76
2020/12/11 04:41:12;;;;;;;24.67;19.73;;;3.30;99.90;;;;;;2112932;28;20024;-78
2020/12/11 04:42:12;;;;;;;23.83;20.27;;;3.30;99.90;;;;;;2112857;27;20030;-79
2020/12/11 04:43:13;;;;;;;25.73;20.75;;;3.30;99.90;;;;;;2121747;27;20026;-76
2020/12/11 04:44:14;;;;;;;25.05;20.20;;;3.30;99.90;;;;;;2121765;27;20050;-78
2020/12/11 04:45:14;;;;;;;23.45;19.80;;;3.30;99.90;;;;;;2122048;27;20023;-76
2020/12/11 04:46:16;;;;;;;24.38;21.02;;;3.30;99.90;;;;;;2121912;27;20027;-78
2020/12/11 04:47:20;;;;;;;22.90;19.45;;;3.30;99.90;;;;;;2121557;27;20026;-75
2020/12/11 04:48:20;;;;;;;23.83;20.23;;;3.30;99.90;;;;;;2112777;28;20026;-78
2020/12/11 04:49:21;;;;;;;22.85;18.60;;;3.30;99.90;;;;;;2112573;28;20090;-76
2020/12/11 04:50:22;;;;;;;23.50;18.10;;;3.30;99.90;;;;;;2112640;28;20023;-77
2020/12/11 04:51:29;;;;;;;21.88;19.58;;;3.30;99.90;;;;;;2103776;28;20115;-76
2020/12/11 04:52:35;;;;;;;22.95;19.73;;;3.30;99.90;;;;;;2113552;27;20066;-79
2020/12/11 04:53:37;;;;;;;24.00;19.58;;;3.30;99.90;;;;;;2112678;28;20321;-77
2020/12/11 04:54:38;;;;;;;20.50;18.15;;;3.30;99.90;;;;;;2112492;28;20099;-76
2020/12/11 04:55:46;;;;;;;20.70;18.48;;;3.30;99.90;;;;;;2121839;27;20087;-75
2020/12/11 04:56:49;;;;;;;19.52;17.17;;;3.40;99.90;;;;;;2121707;27;20462;-76
2020/12/11 04:57:51;;;;;;;21.33;18.23;;;3.30;99.90;;;;;;2121551;27;20383;-78
2020/12/11 04:58:54;;;;;;;21.17;18.83;;;3.40;99.90;;;;;;2112394;28;20547;-76
2020/12/11 04:59:54;;;;;;;21.10;18.15;;;3.40;99.90;;;;;;2112928;28;20058;-76
2020/12/11 05:01:00;;;;;;;21.08;17.65;;;3.40;99.90;;;;;;2121442;27;20020;-77
2020/12/11 05:02:03;;;;;;;20.70;17.85;;;3.40;99.90;;;;;;2121317;27;20387;-76
2020/12/11 05:03:04;;;;;;;22.92;18.85;;;3.40;99.90;;;;;;2112307;28;20032;-76
2020/12/11 05:04:05;;;;;;;21.40;19.10;;;3.40;99.90;;;;;;2112734;28;20051;-77
2020/12/11 05:05:05;;;;;;;21.38;19.08;;;3.40;99.90;;;;;;2121625;27;20110;-77
2020/12/11 05:06:06;;;;;;;21.33;18.83;;;3.50;99.90;;;;;;2112738;28;20028;-78
2020/12/11 05:07:07;;;;;;;21.80;18.92;;;3.40;99.90;;;;;;2112485;28;20092;-76
2020/12/11 05:08:17;;;;;;;21.77;18.65;;;3.50;99.90;;;;;;2121530;27;20023;-78
2020/12/11 05:09:22;;;;;;;21.13;18.25;;;3.50;99.90;;;;;;2121602;27;20478;-76
2020/12/11 05:10:23;;;;;;;22.40;18.73;;;3.50;99.90;;;;;;2121976;27;20027;-75
2020/12/11 05:11:27;;;;;;;23.38;19.02;;;3.50;99.90;;;;;;2112108;28;20127;-78
2020/12/11 05:12:28;;;;;;;19.60;17.50;;;3.50;99.90;;;;;;2112884;27;20027;-76